Time;durP1;ratioP1;P1;durP2;ratioP2;P2;SDS_P1;SDS_P2;PMS_P1;PMS_P2;Temp;Humidity;BMP_temperature;BMP_pressure;BME280_temperature;BME280_humidity;BME280_pressure;Samples;Min_cycle;Max_cycle;Signal;HPM_P1;HPM_P2
2022/02/18 00:00:18;;;;;;;;;;;;;;;;;;5033162;28;19918;-83
2022/02/18 00:02:44;;;;;;;;;;;;;;;;;;5033398;28;19925;-84
2022/02/18 00:05:10;;;;;;;;;;;;;;;;;;5033477;28;20000;-82
2022/02/18 00:07:35;;;;;;;;;;;;;;;;;;5033630;28;19948;-81
2022/02/18 00:10:01;;;;;;;;;;;;;;;;;;5033474;28;20371;-83
2022/02/18 00:12:26;;;;;;;;;;;;;;;;;;5033550;28;19917;-83
2022/02/18 00:14:52;;;;;;;;;;;;;;;;;;5033305;28;19921;-83
2022/02/18 00:17:17;;;;;;;;;;;;;;;;;;5033451;28;19921;-82
2022/02/18 00:19:43;;;;;;;;;;;;;;;;;;5031693;28;20392;-81
2022/02/18 00:22:08;;;;;;;;;;;;;;;;;;5033442;28;19924;-81
2022/02/18 00:24:34;;;;;;;;;;;;;;;;;;5033300;28;19924;-83
2022/02/18 00:26:59;;;;;;;;;;;;;;;;;;5032113;28;19917;-83
2022/02/18 00:29:25;;;;;;;;;;;;;;;;;;5033264;28;20278;-83
2022/02/18 00:31:50;;;;;;;;;;;;;;;;;;5033384;28;19940;-79
2022/02/18 00:34:15;;;;;;;;;;;;;;;;;;5033287;28;19917;-80
2022/02/18 00:36:41;;;;;;;;;;;;;;;;;;5033254;28;19917;-83
2022/02/18 00:39:06;;;;;;;;;;;;;;;;;;5033146;28;19917;-83
2022/02/18 00:41:32;;;;;;;;;;;;;;;;;;5034441;28;19917;-81
2022/02/18 00:43:57;;;;;;;;;;;;;;;;;;5036645;28;19921;-81
2022/02/18 00:46:23;;;;;;;;;;;;;;;;;;5037020;28;19917;-81
2022/02/18 00:48:48;;;;;;;;;;;;;;;;;;5052310;28;19917;-83
2022/02/18 00:51:14;;;;;;;;;;;;;;;;;;5036768;28;19925;-84
2022/02/18 00:53:40;;;;;;;;;;;;;;;;;;5036779;28;19971;-83
2022/02/18 00:56:06;;;;;;;;;;;;;;;;;;5036772;28;19917;-83
2022/02/18 00:58:31;;;;;;;;;;;;;;;;;;5036792;28;19917;-81
2022/02/18 01:00:57;;;;;;;;;;;;;;;;;;5035092;28;19921;-83
2022/02/18 01:03:22;;;;;;;;;;;;;;;;;;5036273;28;19921;-84
2022/02/18 01:05:49;;;;;;;;;;;;;;;;;;5036686;28;19969;-84
2022/02/18 01:08:15;;;;;;;;;;;;;;;;;;5036539;28;19918;-84
2022/02/18 01:10:40;;;;;;;;;;;;;;;;;;5036411;28;19921;-84
2022/02/18 01:13:06;;;;;;;;;;;;;;;;;;5036401;28;19924;-83
2022/02/18 01:15:31;;;;;;;;;;;;;;;;;;5036369;28;19929;-84
2022/02/18 01:17:57;;;;;;;;;;;;;;;;;;5036428;28;19917;-84
2022/02/18 01:20:22;;;;;;;;;;;;;;;;;;5034698;28;20377;-83
2022/02/18 01:22:48;;;;;;;;;;;;;;;;;;5035962;28;20355;-85
2022/02/18 01:25:15;;;;;;;;;;;;;;;;;;5036135;28;20012;-85
2022/02/18 01:27:41;;;;;;;;;;;;;;;;;;5036201;28;20399;-83
2022/02/18 01:30:06;;;;;;;;;;;;;;;;;;5036008;28;19917;-83
2022/02/18 01:32:32;;;;;;;;;;;;;;;;;;5036319;28;20393;-83
2022/02/18 01:34:58;;;;;;;;;;;;;;;;;;5036082;28;19921;-82
2022/02/18 01:37:24;;;;;;;;;;;;;;;;;;5035912;28;20007;-83
2022/02/18 01:39:50;;;;;;;;;;;;;;;;;;5035897;28;20403;-82
2022/02/18 01:42:15;;;;;;;;;;;;;;;;;;5035426;28;19917;-81
2022/02/18 01:44:42;;;;;;;;;;;;;;;;;;5035597;28;19917;-83
2022/02/18 01:47:13;;;;;;;;;;;;;;;;;;5035558;28;19967;-81
2022/02/18 01:49:39;;;;;;;;;;;;;;;;;;5035906;28;19917;-83
2022/02/18 01:52:05;;;;;;;;;;;;;;;;;;5035408;28;20411;-81
2022/02/18 01:54:30;;;;;;;;;;;;;;;;;;5035618;28;19917;-83
2022/02/18 01:56:56;;;;;;;;;;;;;;;;;;5035668;28;19921;-83
2022/02/18 01:59:21;;;;;;;;;;;;;;;;;;5035512;28;19921;-82
2022/02/18 02:01:47;;;;;;;;;;;;;;;;;;5035254;28;20313;-79
2022/02/18 02:04:12;;;;;;;;;;;;;;;;;;5035221;28;19917;-83
2022/02/18 02:06:38;;;;;;;;;;;;;;;;;;5035458;28;19929;-84
2022/02/18 02:09:04;;;;;;;;;;;;;;;;;;5035211;28;20353;-84
2022/02/18 02:11:30;;;;;;;;;;;;;;;;;;5035362;28;19963;-84
2022/02/18 02:13:55;;;;;;;;;;;;;;;;;;5035063;28;20008;-82
2022/02/18 02:16:21;;;;;;;;;;;;;;;;;;5035353;28;19917;-84
2022/02/18 02:18:47;;;;;;;;;;;;;;;;;;5035414;28;19931;-85
2022/02/18 02:21:13;;;;;;;;;;;;;;;;;;5034747;28;19917;-84
2022/02/18 02:23:38;;;;;;;;;;;;;;;;;;5034756;28;20011;-86
2022/02/18 02:26:13;;;;;;;;;;;;;;;;;;5034997;28;20008;-82
2022/02/18 02:28:39;;;;;;;;;;;;;;;;;;5035101;28;19961;-85
2022/02/18 02:31:05;;;;;;;;;;;;;;;;;;5033559;28;20336;-83
2022/02/18 02:33:30;;;;;;;;;;;;;;;;;;5034934;28;19917;-84
2022/02/18 02:35:55;;;;;;;;;;;;;;;;;;5034862;28;19917;-83
2022/02/18 02:38:21;;;;;;;;;;;;;;;;;;5034890;28;19924;-84
2022/02/18 02:40:46;;;;;;;;;;;;;;;;;;5034377;28;19959;-81
2022/02/18 02:43:12;;;;;;;;;;;;;;;;;;5034488;28;20358;-83
2022/02/18 02:45:37;;;;;;;;;;;;;;;;;;5034570;28;19967;-83
2022/02/18 02:48:03;;;;;;;;;;;;;;;;;;5033334;28;19917;-83
2022/02/18 02:50:28;;;;;;;;;;;;;;;;;;5034482;28;20369;-83
2022/02/18 02:52:54;;;;;;;;;;;;;;;;;;5034569;28;20011;-82
2022/02/18 02:55:19;;;;;;;;;;;;;;;;;;5034472;28;19928;-82
2022/02/18 02:57:45;;;;;;;;;;;;;;;;;;5034582;28;19924;-84
2022/02/18 03:00:11;;;;;;;;;;;;;;;;;;5034562;28;20015;-83
2022/02/18 03:02:37;;;;;;;;;;;;;;;;;;5033451;28;19945;-82
2022/02/18 03:05:03;;;;;;;;;;;;;;;;;;5033974;28;20018;-82
2022/02/18 03:07:29;;;;;;;;;;;;;;;;;;5034243;28;19921;-81
2022/02/18 03:09:54;;;;;;;;;;;;;;;;;;5034392;28;19917;-78
2022/02/18 03:12:19;;;;;;;;;;;;;;;;;;5033010;28;20377;-82
2022/02/18 03:14:45;;;;;;;;;;;;;;;;;;5034044;28;19943;-82
2022/02/18 03:17:10;;;;;;;;;;;;;;;;;;5034123;28;20362;-82
2022/02/18 03:19:36;;;;;;;;;;;;;;;;;;5034400;28;20399;-80
2022/02/18 03:22:01;;;;;;;;;;;;;;;;;;5033653;28;19917;-82
2022/02/18 03:24:27;;;;;;;;;;;;;;;;;;5033763;28;20007;-84
2022/02/18 03:26:53;;;;;;;;;;;;;;;;;;5033990;28;19970;-81
2022/02/18 03:29:18;;;;;;;;;;;;;;;;;;5033812;28;19917;-81
2022/02/18 03:31:44;;;;;;;;;;;;;;;;;;5033886;28;20369;-83
2022/02/18 03:34:09;;;;;;;;;;;;;;;;;;5033857;28;19924;-81
2022/02/18 03:36:35;;;;;;;;;;;;;;;;;;5033830;28;19917;-82
2022/02/18 03:39:00;;;;;;;;;;;;;;;;;;5033698;28;19953;-79
2022/02/18 03:41:30;;;;;;;;;;;;;;;;;;5033289;28;19917;-80
2022/02/18 03:43:56;;;;;;;;;;;;;;;;;;5033526;28;19999;-76
2022/02/18 03:46:21;;;;;;;;;;;;;;;;;;5033633;28;19917;-80
2022/02/18 03:48:47;;;;;;;;;;;;;;;;;;5033576;28;20373;-79
2022/02/18 03:51:12;;;;;;;;;;;;;;;;;;5033510;28;20381;-79
2022/02/18 03:53:38;;;;;;;;;;;;;;;;;;5033713;28;20369;-80
2022/02/18 03:56:03;;;;;;;;;;;;;;;;;;5033615;28;19925;-78
2022/02/18 03:58:29;;;;;;;;;;;;;;;;;;5033625;28;20351;-81
2022/02/18 04:00:54;;;;;;;;;;;;;;;;;;5033598;28;19963;-81
2022/02/18 04:03:20;;;;;;;;;;;;;;;;;;5033079;28;19921;-80
2022/02/18 04:05:46;;;;;;;;;;;;;;;;;;5033256;28;20274;-79
2022/02/18 04:08:11;;;;;;;;;;;;;;;;;;5033499;28;19918;-79
2022/02/18 04:10:37;;;;;;;;;;;;;;;;;;5033609;28;19992;-82
2022/02/18 04:13:03;;;;;;;;;;;;;;;;;;5033476;28;20437;-82
2022/02/18 04:15:28;;;;;;;;;;;;;;;;;;5036251;28;19921;-82
2022/02/18 04:17:54;;;;;;;;;;;;;;;;;;5037549;28;20289;-81
2022/02/18 04:20:19;;;;;;;;;;;;;;;;;;5037531;28;19913;-81
2022/02/18 04:22:45;;;;;;;;;;;;;;;;;;5036946;28;20071;-82
2022/02/18 04:25:10;;;;;;;;;;;;;;;;;;5036915;28;19924;-82
2022/02/18 04:27:35;;;;;;;;;;;;;;;;;;5037454;28;20020;-82
2022/02/18 04:30:02;;;;;;;;;;;;;;;;;;5037291;28;20431;-82
2022/02/18 04:32:27;;;;;;;;;;;;;;;;;;5037239;28;20436;-83
2022/02/18 04:34:53;;;;;;;;;;;;;;;;;;5052562;28;19917;-80
2022/02/18 04:37:18;;;;;;;;;;;;;;;;;;5036888;28;19924;-81
2022/02/18 04:39:44;;;;;;;;;;;;;;;;;;5039457;28;19917;-83
2022/02/18 04:42:09;;;;;;;;;;;;;;;;;;5049901;28;19917;-80
2022/02/18 04:44:35;;;;;;;;;;;;;;;;;;5049411;28;19939;-81
2022/02/18 04:47:00;;;;;;;;;;;;;;;;;;5038976;28;20419;-81
2022/02/18 04:49:26;;;;;;;;;;;;;;;;;;5037178;28;20285;-83
2022/02/18 04:51:53;;;;;;;;;;;;;;;;;;5037025;28;20378;-82
2022/02/18 04:54:19;;;;;;;;;;;;;;;;;;5037162;28;19917;-81
2022/02/18 04:56:44;;;;;;;;;;;;;;;;;;5045404;28;20347;-80
2022/02/18 04:59:12;;;;;;;;;;;;;;;;;;5054865;28;19953;-81
2022/02/18 05:01:39;;;;;;;;;;;;;;;;;;5047598;28;20443;-80
2022/02/18 05:04:05;;;;;;;;;;;;;;;;;;5047571;28;19924;-79
2022/02/18 05:06:30;;;;;;;;;;;;;;;;;;5036704;28;19917;-79
2022/02/18 05:08:56;;;;;;;;;;;;;;;;;;5052776;28;19917;-80
2022/02/18 05:11:21;;;;;;;;;;;;;;;;;;5055881;28;19921;-79
2022/02/18 05:13:47;;;;;;;;;;;;;;;;;;5044932;28;20354;-80
2022/02/18 05:16:12;;;;;;;;;;;;;;;;;;5046987;28;19925;-80
2022/02/18 05:18:38;;;;;;;;;;;;;;;;;;5043156;28;19925;-79
2022/02/18 05:21:03;;;;;;;;;;;;;;;;;;5039453;28;19927;-79
2022/02/18 05:23:28;;;;;;;;;;;;;;;;;;5047964;28;20012;-80
2022/02/18 05:25:54;;;;;;;;;;;;;;;;;;5040370;28;19921;-79
2022/02/18 05:28:19;;;;;;;;;;;;;;;;;;5035880;28;19924;-80
2022/02/18 05:30:45;;;;;;;;;;;;;;;;;;5035716;28;19917;-80
2022/02/18 05:33:12;;;;;;;;;;;;;;;;;;5036317;28;19924;-79
2022/02/18 05:35:38;;;;;;;;;;;;;;;;;;5033428;28;20003;-79
2022/02/18 05:38:03;;;;;;;;;;;;;;;;;;5036085;28;20337;-80
2022/02/18 05:40:29;;;;;;;;;;;;;;;;;;5036007;28;19924;-79
2022/02/18 05:42:54;;;;;;;;;;;;;;;;;;5035563;28;20336;-80
2022/02/18 05:45:20;;;;;;;;;;;;;;;;;;5034202;28;20297;-77
2022/02/18 05:47:45;;;;;;;;;;;;;;;;;;5036032;28;20254;-79
2022/02/18 05:50:11;;;;;;;;;;;;;;;;;;5036031;28;19917;-79
2022/02/18 05:52:41;;;;;;;;;;;;;;;;;;5035716;28;20289;-79
2022/02/18 05:55:06;;;;;;;;;;;;;;;;;;5035601;28;20020;-79
2022/02/18 05:57:32;;;;;;;;;;;;;;;;;;5035648;28;19953;-77
2022/02/18 05:59:57;;;;;;;;;;;;;;;;;;5035368;28;19968;-77
2022/02/18 06:02:23;;;;;;;;;;;;;;;;;;5035221;28;19952;-77
2022/02/18 06:04:48;;;;;;;;;;;;;;;;;;5035276;28;20371;-77
2022/02/18 06:07:17;;;;;;;;;;;;;;;;;;5033920;28;19970;-78
2022/02/18 06:09:43;;;;;;;;;;;;;;;;;;5035327;28;19924;-80
2022/02/18 06:12:09;;;;;;;;;;;;;;;;;;5035405;28;20369;-78
2022/02/18 06:14:34;;;;;;;;;;;;;;;;;;5035090;28;19921;-77
2022/02/18 06:17:02;;;;;;;;;;;;;;;;;;5035206;28;20019;-78
2022/02/18 06:19:27;;;;;;;;;;;;;;;;;;5035142;28;19913;-78
2022/02/18 06:21:53;;;;;;;;;;;;;;;;;;5034968;28;19917;-76
2022/02/18 06:24:18;;;;;;;;;;;;;;;;;;5034886;28;19913;-76
2022/02/18 06:26:45;;;;;;;;;;;;;;;;;;5033653;28;19924;-76
2022/02/18 06:29:10;;;;;;;;;;;;;;;;;;5034887;28;19917;-78
2022/02/18 06:31:37;;;;;;;;;;;;;;;;;;5034867;28;20266;-77
2022/02/18 06:34:02;;;;;;;;;;;;;;;;;;5034791;28;19975;-78
2022/02/18 06:36:28;;;;;;;;;;;;;;;;;;5034755;28;19921;-77
2022/02/18 06:38:53;;;;;;;;;;;;;;;;;;5033750;28;19917;-78
2022/02/18 06:41:19;;;;;;;;;;;;;;;;;;5034515;28;19921;-78
2022/02/18 06:43:44;;;;;;;;;;;;;;;;;;5034496;28;19924;-78
2022/02/18 06:46:10;;;;;;;;;;;;;;;;;;5034370;28;19987;-77
2022/02/18 06:48:35;;;;;;;;;;;;;;;;;;5034542;28;19917;-78
2022/02/18 06:51:00;;;;;;;;;;;;;;;;;;5034605;28;20035;-78
2022/02/18 06:53:26;;;;;;;;;;;;;;;;;;5034437;28;19924;-78
2022/02/18 06:55:52;;;;;;;;;;;;;;;;;;5034482;28;19940;-78
2022/02/18 06:58:18;;;;;;;;;;;;;;;;;;5034529;28;19921;-78
2022/02/18 07:00:43;;;;;;;;;;;;;;;;;;5034351;28;19917;-78
2022/02/18 07:03:09;;;;;;;;;;;;;;;;;;5033916;28;19971;-78
2022/02/18 07:05:34;;;;;;;;;;;;;;;;;;5034119;28;19963;-77
2022/02/18 07:08:00;;;;;;;;;;;;;;;;;;5034113;28;19917;-77
2022/02/18 07:10:25;;;;;;;;;;;;;;;;;;5034234;28;20414;-77
2022/02/18 07:12:51;;;;;;;;;;;;;;;;;;5034216;28;19917;-77
2022/02/18 07:15:16;;;;;;;;;;;;;;;;;;5033855;28;19967;-78
2022/02/18 07:17:42;;;;;;;;;;;;;;;;;;5032854;28;19917;-78
2022/02/18 07:20:09;;;;;;;;;;;;;;;;;;5034228;28;19928;-78
2022/02/18 07:22:40;;;;;;;;;;;;;;;;;;5033897;28;19913;-76
2022/02/18 07:25:06;;;;;;;;;;;;;;;;;;5033516;28;20382;-78
2022/02/18 07:27:33;;;;;;;;;;;;;;;;;;5032407;28;19913;-77
2022/02/18 07:29:59;;;;;;;;;;;;;;;;;;5033875;28;19927;-78
2022/02/18 07:32:24;;;;;;;;;;;;;;;;;;5032608;28;19917;-77
2022/02/18 07:34:50;;;;;;;;;;;;;;;;;;5033853;28;19917;-77
2022/02/18 07:37:16;;;;;;;;;;;;;;;;;;5033821;28;19924;-78
2022/02/18 07:39:42;;;;;;;;;;;;;;;;;;5033883;28;19917;-77
2022/02/18 07:42:07;;;;;;;;;;;;;;;;;;5033695;28;19948;-77
2022/02/18 07:44:33;;;;;;;;;;;;;;;;;;5033476;28;19940;-77
2022/02/18 07:46:58;;;;;;;;;;;;;;;;;;5033675;28;19917;-77
2022/02/18 07:49:24;;;;;;;;;;;;;;;;;;5033217;28;19927;-78
2022/02/18 07:51:49;;;;;;;;;;;;;;;;;;5033651;28;19917;-77
2022/02/18 07:54:15;;;;;;;;;;;;;;;;;;5032420;28;19925;-77
2022/02/18 07:56:40;;;;;;;;;;;;;;;;;;5033753;28;19964;-78
2022/02/18 07:59:06;;;;;;;;;;;;;;;;;;5033573;28;20403;-78
2022/02/18 08:01:31;;;;;;;;;;;;;;;;;;5033382;28;20387;-79
2022/02/18 08:03:57;;;;;;;;;;;;;;;;;;5033223;28;20263;-79
2022/02/18 08:06:22;;;;;;;;;;;;;;;;;;5033495;28;19917;-78
2022/02/18 08:08:49;;;;;;;;;;;;;;;;;;5033481;28;20312;-79
2022/02/18 08:11:16;;;;;;;;;;;;;;;;;;5033391;28;19918;-79
2022/02/18 08:13:42;;;;;;;;;;;;;;;;;;5033365;28;20381;-77
2022/02/18 08:16:07;;;;;;;;;;;;;;;;;;5032271;28;19928;-78
2022/02/18 08:18:33;;;;;;;;;;;;;;;;;;5033347;28;20020;-78
2022/02/18 08:20:58;;;;;;;;;;;;;;;;;;5032410;28;19979;-78
2022/02/18 08:23:24;;;;;;;;;;;;;;;;;;5033803;28;19922;-77
2022/02/18 08:25:49;;;;;;;;;;;;;;;;;;5032832;28;20373;-77
2022/02/18 08:28:17;;;;;;;;;;;;;;;;;;5033265;28;20262;-78
2022/02/18 08:30:43;;;;;;;;;;;;;;;;;;5033284;28;19917;-78
2022/02/18 08:33:08;;;;;;;;;;;;;;;;;;5033300;28;19986;-77
2022/02/18 08:35:34;;;;;;;;;;;;;;;;;;5033239;28;19913;-81
2022/02/18 08:38:00;;;;;;;;;;;;;;;;;;5033767;28;19940;-77
2022/02/18 08:40:25;;;;;;;;;;;;;;;;;;5033351;28;19918;-79
2022/02/18 08:42:51;;;;;;;;;;;;;;;;;;5033126;28;19935;-76
2022/02/18 08:45:17;;;;;;;;;;;;;;;;;;5051928;28;19971;-81
2022/02/18 08:47:42;;;;;;;;;;;;;;;;;;5052780;28;19912;-80
2022/02/18 08:50:09;;;;;;;;;;;;;;;;;;5052927;28;19927;-76
2022/02/18 08:52:35;;;;;;;;;;;;;;;;;;5053093;28;19956;-81
2022/02/18 08:55:01;;;;;;;;;;;;;;;;;;5053004;28;19920;-78
2022/02/18 08:57:27;;;;;;;;;;;;;;;;;;5053028;28;19917;-77
2022/02/18 08:59:52;;;;;;;;;;;;;;;;;;5052984;28;19967;-79
2022/02/18 09:02:18;;;;;;;;;;;;;;;;;;5053876;28;19920;-80
2022/02/18 09:04:43;;;;;;;;;;;;;;;;;;5056168;28;19917;-79
2022/02/18 09:07:09;;;;;;;;;;;;;;;;;;5054853;28;19917;-79
2022/02/18 09:09:34;;;;;;;;;;;;;;;;;;5056456;28;19916;-80
2022/02/18 09:12:00;;;;;;;;;;;;;;;;;;5056461;28;19917;-79
2022/02/18 09:14:26;;;;;;;;;;;;;;;;;;5056218;28;20058;-76
2022/02/18 09:16:52;;;;;;;;;;;;;;;;;;5056445;28;19917;-80
2022/02/18 09:19:18;;;;;;;;;;;;;;;;;;5054890;28;19912;-79
2022/02/18 09:21:43;;;;;;;;;;;;;;;;;;5056167;28;20006;-82
2022/02/18 09:24:09;;;;;;;;;;;;;;;;;;5055598;28;19924;-81
2022/02/18 09:26:34;;;;;;;;;;;;;;;;;;5056141;28;19913;-81
2022/02/18 09:28:59;;;;;;;;;;;;;;;;;;5055686;28;19990;-79
2022/02/18 09:31:25;;;;;;;;;;;;;;;;;;5054519;28;20335;-79
2022/02/18 09:33:51;;;;;;;;;;;;;;;;;;5055974;28;19917;-80
2022/02/18 09:36:17;;;;;;;;;;;;;;;;;;5056092;28;19917;-78
2022/02/18 09:38:42;;;;;;;;;;;;;;;;;;5055988;28;19916;-79
2022/02/18 09:41:08;;;;;;;;;;;;;;;;;;5055710;28;19928;-78
2022/02/18 09:43:36;;;;;;;;;;;;;;;;;;5055704;28;20296;-82
2022/02/18 09:46:03;;;;;;;;;;;;;;;;;;5054119;28;19924;-79
2022/02/18 09:48:28;;;;;;;;;;;;;;;;;;5055498;28;20015;-79
2022/02/18 09:50:55;;;;;;;;;;;;;;;;;;5055759;28;19996;-78
2022/02/18 09:53:21;;;;;;;;;;;;;;;;;;5055598;28;19916;-79
2022/02/18 09:55:48;;;;;;;;;;;;;;;;;;5055666;28;19917;-79
2022/02/18 09:58:21;;;;;;;;;;;;;;;;;;5054295;28;19917;-79
2022/02/18 10:00:47;;;;;;;;;;;;;;;;;;5055441;28;19971;-80
2022/02/18 10:03:12;;;;;;;;;;;;;;;;;;5054011;28;20333;-80
2022/02/18 10:05:38;;;;;;;;;;;;;;;;;;5055189;28;19944;-80
2022/02/18 10:08:08;;;;;;;;;;;;;;;;;;5055288;28;20002;-80
2022/02/18 10:10:34;;;;;;;;;;;;;;;;;;5055248;28;19948;-80
2022/02/18 10:13:01;;;;;;;;;;;;;;;;;;5055023;28;19917;-79
2022/02/18 10:15:27;;;;;;;;;;;;;;;;;;5054817;28;19987;-80
2022/02/18 10:17:58;;;;;;;;;;;;;;;;;;5055044;28;20373;-79
2022/02/18 10:20:27;;;;;;;;;;;;;;;;;;5054941;28;19913;-80
2022/02/18 10:22:59;;;;;;;;;;;;;;;;;;5054789;28;19940;-79
2022/02/18 10:25:32;;;;;;;;;;;;;;;;;;5054385;28;19920;-80
2022/02/18 10:27:58;;;;;;;;;;;;;;;;;;5054832;28;19924;-80
2022/02/18 10:30:26;;;;;;;;;;;;;;;;;;5054777;28;19917;-79
2022/02/18 10:32:52;;;;;;;;;;;;;;;;;;5054975;28;20015;-78
2022/02/18 10:35:19;;;;;;;;;;;;;;;;;;5054790;28;19928;-80
2022/02/18 10:37:49;;;;;;;;;;;;;;;;;;5054768;28;19974;-79
2022/02/18 10:40:16;;;;;;;;;;;;;;;;;;5054742;28;19924;-77
2022/02/18 10:42:43;;;;;;;;;;;;;;;;;;5054521;28;19932;-78
2022/02/18 10:45:12;;;;;;;;;;;;;;;;;;5054139;28;20392;-78
2022/02/18 10:47:38;;;;;;;;;;;;;;;;;;5054326;28;19940;-79
2022/02/18 10:50:36;;;;;;;;;;;;;;;;;;5054280;28;19924;-79
2022/02/18 10:53:14;;;;;;;;;;;;;;;;;;5010353;28;19928;-79
2022/02/18 10:56:10;;;;;;;;;;;;;;;;;;5054702;28;19917;-79
2022/02/18 10:58:37;;;;;;;;;;;;;;;;;;5037803;28;20332;-80
2022/02/18 11:01:08;;;;;;;;;;;;;;;;;;5054207;28;20297;-79
2022/02/18 11:03:34;;;;;;;;;;;;;;;;;;5054169;28;19917;-79
2022/02/18 11:06:09;;;;;;;;;;;;;;;;;;5054064;28;20436;-80
2022/02/18 11:08:34;;;;;;;;;;;;;;;;;;5054116;28;20384;-78
2022/02/18 11:11:09;;;;;;;;;;;;;;;;;;5053978;28;19917;-79
2022/02/18 11:13:35;;;;;;;;;;;;;;;;;;5054185;28;19924;-78
2022/02/18 11:16:02;;;;;;;;;;;;;;;;;;5054482;28;19917;-80
2022/02/18 11:18:28;;;;;;;;;;;;;;;;;;5054017;28;19967;-79
2022/02/18 11:20:54;;;;;;;;;;;;;;;;;;5053973;28;19924;-78
2022/02/18 11:23:21;;;;;;;;;;;;;;;;;;5053564;28;19916;-79
2022/02/18 11:25:46;;;;;;;;;;;;;;;;;;5053250;28;20292;-82
2022/02/18 11:28:12;;;;;;;;;;;;;;;;;;5053613;28;19916;-79
2022/02/18 11:30:41;;;;;;;;;;;;;;;;;;5053729;28;19920;-78
2022/02/18 11:33:14;;;;;;;;;;;;;;;;;;5052508;28;19916;-79
2022/02/18 11:35:46;;;;;;;;;;;;;;;;;;5054206;28;19912;-77
2022/02/18 11:38:30;;;;;;;;;;;;;;;;;;5054284;28;19923;-78
2022/02/18 11:41:04;;;;;;;;;;;;;;;;;;5052860;28;20296;-76
2022/02/18 11:43:33;;;;;;;;;;;;;;;;;;5042851;28;19928;-86
2022/02/18 11:46:05;;;;;;;;;;;;;;;;;;5040759;28;19924;-79
2022/02/18 11:48:41;;;;;;;;;;;;;;;;;;5032529;28;19961;-79
2022/02/18 11:51:07;;;;;;;;;;;;;;;;;;5032486;28;19921;-80
2022/02/18 11:53:36;;;;;;;;;;;;;;;;;;5035364;28;20354;-82
2022/02/18 11:56:02;;;;;;;;;;;;;;;;;;5038387;28;19921;-80
2022/02/18 11:58:27;;;;;;;;;;;;;;;;;;5038998;28;19935;-79
2022/02/18 12:00:53;;;;;;;;;;;;;;;;;;5039147;28;20018;-80
2022/02/18 12:03:23;;;;;;;;;;;;;;;;;;5041163;28;19952;-81
2022/02/18 12:06:10;;;;;;;;;;;;;;;;;;5040264;28;19921;-79
2022/02/18 12:08:39;;;;;;;;;;;;;;;;;;5043506;28;19913;-80
2022/02/18 12:11:12;;;;;;;;;;;;;;;;;;5051360;28;19917;-81
2022/02/18 12:13:50;;;;;;;;;;;;;;;;;;5037293;28;19936;-80
2022/02/18 12:16:17;;;;;;;;;;;;;;;;;;5037895;28;19924;-79
2022/02/18 12:18:45;;;;;;;;;;;;;;;;;;5040446;28;19921;-81
2022/02/18 12:21:11;;;;;;;;;;;;;;;;;;5043315;28;20328;-81
2022/02/18 12:23:42;;;;;;;;;;;;;;;;;;5051064;28;19921;-80
2022/02/18 12:26:19;;;;;;;;;;;;;;;;;;5037751;28;19921;-80
2022/02/18 12:28:49;;;;;;;;;;;;;;;;;;5044735;28;19921;-80
2022/02/18 12:31:14;;;;;;;;;;;;;;;;;;5040333;28;20369;-81
2022/02/18 12:33:40;;;;;;;;;;;;;;;;;;5042049;28;19924;-80
2022/02/18 12:36:06;;;;;;;;;;;;;;;;;;5044215;28;20289;-80
2022/02/18 12:38:32;;;;;;;;;;;;;;;;;;5042995;28;20003;-81
2022/02/18 12:40:57;;;;;;;;;;;;;;;;;;5045759;28;20023;-81
2022/02/18 12:43:23;;;;;;;;;;;;;;;;;;5037047;28;19948;-81
2022/02/18 12:45:51;;;;;;;;;;;;;;;;;;5035265;28;19975;-82
2022/02/18 12:48:30;;;;;;;;;;;;;;;;;;5036394;28;19917;-79
2022/02/18 12:50:56;;;;;;;;;;;;;;;;;;5036563;28;19917;-79
2022/02/18 12:53:21;;;;;;;;;;;;;;;;;;5047504;28;19983;-78
2022/02/18 12:55:47;;;;;;;;;;;;;;;;;;5036744;28;19919;-79
2022/02/18 12:58:13;;;;;;;;;;;;;;;;;;5035733;28;19917;-80
2022/02/18 13:00:47;;;;;;;;;;;;;;;;;;5043975;28;19979;-77
2022/02/18 13:03:13;;;;;;;;;;;;;;;;;;5052962;28;19923;-84
2022/02/18 13:05:45;;;;;;;;;;;;;;;;;;5058564;28;19924;-79
2022/02/18 13:08:18;;;;;;;;;;;;;;;;;;5055272;28;19913;-79
2022/02/18 13:10:44;;;;;;;;;;;;;;;;;;5058512;28;19948;-80
2022/02/18 13:13:10;;;;;;;;;;;;;;;;;;5058325;28;19974;-80
2022/02/18 13:15:36;;;;;;;;;;;;;;;;;;5056220;28;19963;-80
2022/02/18 13:18:03;;;;;;;;;;;;;;;;;;5056328;28;19956;-81
2022/02/18 13:20:37;;;;;;;;;;;;;;;;;;5054046;28;19917;-77
2022/02/18 13:23:07;;;;;;;;;;;;;;;;;;5045024;28;19948;-81
2022/02/18 13:25:37;;;;;;;;;;;;;;;;;;5044448;28;19925;-81
2022/02/18 13:28:04;;;;;;;;;;;;;;;;;;5045117;28;19956;-79
2022/02/18 13:30:31;;;;;;;;;;;;;;;;;;5036206;28;19917;-76
2022/02/18 13:33:13;;;;;;;;;;;;;;;;;;5047623;28;19924;-77
2022/02/18 13:35:39;;;;;;;;;;;;;;;;;;5036553;28;19975;-79
2022/02/18 13:38:35;;;;;;;;;;;;;;;;;;5036267;28;19925;-81
2022/02/18 13:41:07;;;;;;;;;;;;;;;;;;5023243;28;19913;-79
2022/02/18 13:43:36;;;;;;;;;;;;;;;;;;5041131;28;19975;-76
2022/02/18 13:46:02;;;;;;;;;;;;;;;;;;5047193;28;19917;-78
2022/02/18 13:48:28;;;;;;;;;;;;;;;;;;5036491;28;19917;-76
2022/02/18 13:50:56;;;;;;;;;;;;;;;;;;5035501;28;19925;-80
2022/02/18 13:53:22;;;;;;;;;;;;;;;;;;5041796;28;19921;-79
2022/02/18 13:55:47;;;;;;;;;;;;;;;;;;5042471;28;19917;-79
2022/02/18 13:58:19;;;;;;;;;;;;;;;;;;5044863;28;19967;-77
2022/02/18 14:00:46;;;;;;;;;;;;;;;;;;5054339;28;19927;-78
2022/02/18 14:03:12;;;;;;;;;;;;;;;;;;5046553;28;19924;-77
2022/02/18 14:05:37;;;;;;;;;;;;;;;;;;5041859;28;20297;-76
2022/02/18 14:08:04;;;;;;;;;;;;;;;;;;5046384;28;19920;-77
2022/02/18 14:10:37;;;;;;;;;;;;;;;;;;5043795;28;19920;-77
2022/02/18 14:13:02;;;;;;;;;;;;;;;;;;5061028;28;19978;-80
2022/02/18 14:15:28;;;;;;;;;;;;;;;;;;5043079;28;19936;-81
2022/02/18 14:18:05;;;;;;;;;;;;;;;;;;5041299;28;20440;-80
2022/02/18 14:20:30;;;;;;;;;;;;;;;;;;5044040;28;20374;-81
2022/02/18 14:22:57;;;;;;;;;;;;;;;;;;5041685;28;19928;-80
2022/02/18 14:25:23;;;;;;;;;;;;;;;;;;5046710;28;20023;-81
2022/02/18 14:27:49;;;;;;;;;;;;;;;;;;5042877;28;19931;-81
2022/02/18 14:30:14;;;;;;;;;;;;;;;;;;5050569;28;20309;-81
2022/02/18 14:32:43;;;;;;;;;;;;;;;;;;5047136;28;19921;-81
2022/02/18 14:35:08;;;;;;;;;;;;;;;;;;5044665;28;19929;-79
2022/02/18 14:37:34;;;;;;;;;;;;;;;;;;5043189;28;19925;-80
2022/02/18 14:40:15;;;;;;;;;;;;;;;;;;5040657;28;19921;-80
2022/02/18 14:42:41;;;;;;;;;;;;;;;;;;5040505;28;19975;-80
2022/02/18 14:45:08;;;;;;;;;;;;;;;;;;5037748;28;19921;-80
2022/02/18 14:47:38;;;;;;;;;;;;;;;;;;5054844;28;19917;-81
2022/02/18 14:50:07;;;;;;;;;;;;;;;;;;5054644;28;19916;-81
2022/02/18 14:52:33;;;;;;;;;;;;;;;;;;5046951;28;19917;-80
2022/02/18 14:54:58;;;;;;;;;;;;;;;;;;5034701;28;20304;-80
2022/02/18 14:57:25;;;;;;;;;;;;;;;;;;5034690;28;19917;-80
2022/02/18 14:59:51;;;;;;;;;;;;;;;;;;5033848;28;19942;-80
2022/02/18 15:02:17;;;;;;;;;;;;;;;;;;5034512;28;19917;-81
2022/02/18 15:04:43;;;;;;;;;;;;;;;;;;5045434;28;19931;-80
2022/02/18 15:07:08;;;;;;;;;;;;;;;;;;5054429;28;19995;-81
2022/02/18 15:09:34;;;;;;;;;;;;;;;;;;5054314;28;20323;-79
2022/02/18 15:12:00;;;;;;;;;;;;;;;;;;5054328;28;19920;-79
2022/02/18 15:14:25;;;;;;;;;;;;;;;;;;5055648;28;19956;-79
2022/02/18 15:16:51;;;;;;;;;;;;;;;;;;5054356;28;19923;-80
2022/02/18 15:19:16;;;;;;;;;;;;;;;;;;5054359;28;20380;-80
2022/02/18 15:21:42;;;;;;;;;;;;;;;;;;5054139;28;19916;-79
2022/02/18 15:24:07;;;;;;;;;;;;;;;;;;5054186;28;19920;-79
2022/02/18 15:26:33;;;;;;;;;;;;;;;;;;5054026;28;19919;-80
2022/02/18 15:28:58;;;;;;;;;;;;;;;;;;5053939;28;19920;-79
2022/02/18 15:36:52;;;;;;;;;;;;;;;;;;5054429;28;19923;-80
2022/02/18 15:42:08;;;;;;;;;;;;;;;;;;5054203;28;20006;-80
2022/02/18 15:44:36;;;;;;;;;;;;;;;;;;5053898;28;19917;-81
2022/02/18 15:47:05;;;;;;;;;;;;;;;;;;5053787;28;19923;-81
2022/02/18 15:49:31;;;;;;;;;;;;;;;;;;5053679;28;20383;-78
2022/02/18 15:52:01;;;;;;;;;;;;;;;;;;5053683;28;19916;-80
2022/02/18 15:54:27;;;;;;;;;;;;;;;;;;5053660;28;19959;-80
2022/02/18 15:56:52;;;;;;;;;;;;;;;;;;5053728;28;19959;-79
2022/02/18 15:59:18;;;;;;;;;;;;;;;;;;5053727;28;19931;-81
2022/02/18 16:01:46;;;;;;;;;;;;;;;;;;5052355;28;19923;-78
2022/02/18 16:04:13;;;;;;;;;;;;;;;;;;5053785;28;20268;-79
2022/02/18 16:06:38;;;;;;;;;;;;;;;;;;5054030;28;20286;-79
2022/02/18 16:09:04;;;;;;;;;;;;;;;;;;5053561;28;19939;-79
2022/02/18 16:11:29;;;;;;;;;;;;;;;;;;5056573;28;19917;-78
2022/02/18 16:13:55;;;;;;;;;;;;;;;;;;5057476;28;19921;-78
2022/02/18 16:16:20;;;;;;;;;;;;;;;;;;5056309;28;20366;-79
2022/02/18 16:18:46;;;;;;;;;;;;;;;;;;5057475;28;20341;-78
2022/02/18 16:21:22;;;;;;;;;;;;;;;;;;5057342;28;20377;-79
2022/02/18 16:23:49;;;;;;;;;;;;;;;;;;5057586;28;19923;-78
2022/02/18 16:26:14;;;;;;;;;;;;;;;;;;5057852;28;19916;-80
2022/02/18 16:28:39;;;;;;;;;;;;;;;;;;5057632;28;19917;-79
2022/02/18 16:31:05;;;;;;;;;;;;;;;;;;5057246;28;19917;-79
2022/02/18 16:33:30;;;;;;;;;;;;;;;;;;5057429;28;19917;-80
2022/02/18 16:35:56;;;;;;;;;;;;;;;;;;5057429;28;19917;-78
2022/02/18 16:38:21;;;;;;;;;;;;;;;;;;5057348;28;19917;-80
2022/02/18 16:40:46;;;;;;;;;;;;;;;;;;5057301;28;19923;-79
2022/02/18 16:43:12;;;;;;;;;;;;;;;;;;5057345;28;20312;-78
2022/02/18 16:45:37;;;;;;;;;;;;;;;;;;5056924;28;19948;-79
2022/02/18 16:48:03;;;;;;;;;;;;;;;;;;5057135;28;20352;-79
2022/02/18 16:50:29;;;;;;;;;;;;;;;;;;5056999;28;20445;-81